Terminal Aerodrome Forecast
Issued by NWS Pendleton, OR

Home | Current Version | Previous Version | Text Only | Print | Product List | Glossary On
Versions: 1 2 3 4 5 6 7 8 9 10 11 12
000
FTUS46 KPDT 171100
TAFPDT
TAF
KPDT 171140Z 1712/1812 14007KT P6SM SCT150 BKN200
     FM171600 32007KT P6SM SCT100 BKN180
     FM172100 30010KT P6SM SCT070 BKN100
     FM180400 19007KT P6SM SCT120 OVC150=

USA.gov is the U.S. government's official web portal to all federal, state and local government web resources and services.